Time;durP1;ratioP1;P1;durP2;ratioP2;P2;SDS_P1;SDS_P2;PMS_P1;PMS_P2;Temp;Humidity;BMP_temperature;BMP_pressure;BME280_temperature;BME280_humidity;BME280_pressure;Samples;Min_cycle;Max_cycle;Signal;HPM_P1;HPM_P2
2022/03/01 00:00:03;;;;;;;11.70;9.20;;;3.80;78.30;;;;;;10466615;28;20220;-79
2022/03/01 00:05:14;;;;;;;11.37;9.40;;;3.80;77.90;;;;;;10495885;28;20793;-79
2022/03/01 00:10:16;;;;;;;12.73;9.43;;;3.80;79.80;;;;;;10508942;28;20224;-80
2022/03/01 00:15:20;;;;;;;13.97;10.27;;;3.90;80.30;;;;;;10500957;28;20292;-79
2022/03/01 00:20:22;;;;;;;11.20;10.00;;;3.90;77.70;;;;;;10463798;28;20385;-79
2022/03/01 00:25:24;;;;;;;13.17;11.10;;;3.90;79.40;;;;;;10503283;28;20222;-80
2022/03/01 00:30:27;;;;;;;14.53;10.53;;;3.80;80.50;;;;;;10483393;28;20223;-80
2022/03/01 00:35:30;;;;;;;12.10;9.73;;;3.80;80.20;;;;;;10481113;28;20202;-80
2022/03/01 00:40:32;;;;;;;12.40;10.37;;;3.90;81.20;;;;;;10505392;28;20659;-80
2022/03/01 00:45:35;;;;;;;14.83;11.30;;;3.80;81.10;;;;;;10484008;28;20216;-79
2022/03/01 00:50:37;;;;;;;12.80;10.77;;;3.80;77.20;;;;;;10495870;28;20232;-80
2022/03/01 00:55:39;;;;;;;14.00;11.73;;;3.80;80.60;;;;;;10483942;28;20201;-79
2022/03/01 01:00:43;;;;;;;17.33;11.60;;;3.80;77.30;;;;;;10485715;28;20281;-80
2022/03/01 01:05:45;;;;;;;18.10;11.83;;;3.80;75.80;;;;;;10525515;28;20258;-80
2022/03/01 01:10:47;;;;;;;14.33;11.20;;;3.80;80.30;;;;;;10511207;28;20247;-79
2022/03/01 01:15:50;;;;;;;14.27;11.70;;;3.80;80.20;;;;;;10512330;28;20204;-79
2022/03/01 01:20:53;;;;;;;13.77;11.70;;;3.70;80.80;;;;;;10483013;28;20217;-79
2022/03/01 01:25:55;;;;;;;14.10;11.60;;;3.70;82.50;;;;;;10469247;28;20193;-79
2022/03/01 01:30:58;;;;;;;13.80;11.10;;;3.60;82.60;;;;;;10461486;28;20259;-79
2022/03/01 01:36:00;;;;;;;13.00;10.87;;;3.60;82.40;;;;;;10444192;28;20208;-80
2022/03/01 01:41:03;;;;;;;18.27;11.93;;;3.60;82.80;;;;;;10456481;28;20217;-80
2022/03/01 01:46:06;;;;;;;13.70;11.87;;;3.50;83.50;;;;;;10464826;28;20282;-80
2022/03/01 01:51:08;;;;;;;15.97;11.67;;;3.50;84.20;;;;;;10449795;28;20595;-80
2022/03/01 01:56:10;;;;;;;16.27;12.60;;;3.50;83.40;;;;;;10473457;28;20546;-79
2022/03/01 02:01:13;;;;;;;14.43;11.83;;;3.40;82.50;;;;;;10462643;28;20216;-80
2022/03/01 02:06:16;;;;;;;14.93;12.00;;;3.30;81.10;;;;;;10456852;28;20259;-81
2022/03/01 02:11:18;;;;;;;14.10;11.70;;;3.20;81.80;;;;;;10456680;28;20312;-80
2022/03/01 02:16:22;;;;;;;14.27;11.93;;;3.10;82.80;;;;;;10463416;28;20198;-80
2022/03/01 02:21:25;;;;;;;15.23;12.77;;;3.00;83.70;;;;;;10474605;28;20324;-80
2022/03/01 02:26:27;;;;;;;17.93;12.77;;;3.00;82.50;;;;;;10453741;28;20231;-80
2022/03/01 02:31:29;;;;;;;12.93;11.37;;;2.90;83.10;;;;;;10487436;22;21035;-80
2022/03/01 02:36:33;;;;;;;14.10;11.80;;;2.90;82.70;;;;;;10474281;28;20302;-79
2022/03/01 02:41:38;;;;;;;15.97;12.57;;;2.90;82.60;;;;;;10486677;28;20212;-79
2022/03/01 02:46:40;;;;;;;15.50;11.53;;;2.90;82.90;;;;;;10456450;28;20205;-78
2022/03/01 02:51:44;;;;;;;13.73;11.73;;;2.80;80.40;;;;;;10488596;28;20228;-78
2022/03/01 02:56:46;;;;;;;14.27;11.57;;;2.80;81.00;;;;;;10463803;28;20212;-78
2022/03/01 03:01:48;;;;;;;13.87;11.43;;;2.70;81.70;;;;;;10496577;28;20699;-78
2022/03/01 03:06:52;;;;;;;14.33;11.67;;;2.60;79.30;;;;;;10461223;28;20246;-78
2022/03/01 03:11:54;;;;;;;14.67;12.87;;;2.60;81.40;;;;;;10492758;28;20747;-79
2022/03/01 03:16:57;;;;;;;13.80;12.07;;;2.60;84.00;;;;;;10496816;28;20279;-79
2022/03/01 03:22:02;;;;;;;14.63;10.90;;;2.60;81.70;;;;;;10489159;28;20235;-79
2022/03/01 03:27:05;;;;;;;17.30;12.20;;;2.60;82.10;;;;;;10521232;28;20618;-79
2022/03/01 03:32:08;;;;;;;18.07;12.83;;;2.50;82.90;;;;;;10484302;28;20331;-79
2022/03/01 03:37:11;;;;;;;15.60;12.57;;;2.50;82.30;;;;;;10493323;28;20208;-79
2022/03/01 03:42:13;;;;;;;15.37;11.93;;;2.50;80.00;;;;;;10499455;28;20213;-79
2022/03/01 03:47:16;;;;;;;13.93;12.13;;;2.50;81.00;;;;;;10488464;28;20207;-79
2022/03/01 03:52:19;;;;;;;14.50;11.40;;;2.40;78.90;;;;;;10496048;28;20224;-78
2022/03/01 03:57:21;;;;;;;14.50;12.50;;;2.30;79.20;;;;;;10488742;28;20606;-79
2022/03/01 04:02:23;;;;;;;16.50;12.40;;;2.20;78.20;;;;;;10477557;28;20661;-78
2022/03/01 04:07:27;;;;;;;15.60;12.63;;;2.10;77.50;;;;;;10472694;28;20224;-78
2022/03/01 04:12:29;;;;;;;13.50;12.10;;;2.00;79.60;;;;;;10494041;28;20239;-78
2022/03/01 04:17:31;;;;;;;16.40;13.10;;;2.00;80.50;;;;;;10480072;28;20303;-78
2022/03/01 04:22:35;;;;;;;15.90;11.43;;;2.00;82.80;;;;;;10492772;28;20225;-79
2022/03/01 04:27:38;;;;;;;13.70;11.67;;;2.10;78.70;;;;;;10490977;28;20703;-79
2022/03/01 04:32:41;;;;;;;13.53;11.70;;;2.00;78.60;;;;;;10481120;28;20228;-78
2022/03/01 04:37:45;;;;;;;13.10;10.70;;;2.00;81.20;;;;;;10492524;28;20724;-78
2022/03/01 04:42:47;;;;;;;12.40;10.00;;;2.10;81.40;;;;;;10497923;28;20263;-79
2022/03/01 04:47:50;;;;;;;12.63;11.30;;;2.10;81.30;;;;;;10498872;28;20626;-79
2022/03/01 04:52:53;;;;;;;13.43;11.80;;;2.10;81.10;;;;;;10473435;28;20691;-79
2022/03/01 04:57:56;;;;;;;18.33;14.70;;;2.10;81.80;;;;;;10489089;28;20279;-78
2022/03/01 05:02:58;;;;;;;21.60;17.53;;;2.10;84.30;;;;;;10499223;28;20704;-79
2022/03/01 05:08:01;;;;;;;17.60;14.47;;;2.20;85.90;;;;;;10514623;28;20256;-78
2022/03/01 05:13:03;;;;;;;16.10;11.80;;;2.30;81.40;;;;;;10483809;28;20224;-79
2022/03/01 05:18:05;;;;;;;13.57;11.47;;;2.30;80.80;;;;;;10489668;28;20205;-78
2022/03/01 05:23:09;;;;;;;12.63;10.77;;;2.30;82.30;;;;;;10504289;28;20243;-78
2022/03/01 05:28:11;;;;;;;13.57;11.27;;;2.20;82.80;;;;;;10492001;28;20668;-78
2022/03/01 05:33:13;;;;;;;13.03;11.00;;;2.20;82.30;;;;;;10498812;28;20737;-77
2022/03/01 05:38:17;;;;;;;13.33;11.60;;;2.20;83.40;;;;;;10483789;28;20547;-78
2022/03/01 05:43:19;;;;;;;13.37;11.97;;;2.20;84.30;;;;;;10488572;28;20213;-78
2022/03/01 05:48:21;;;;;;;14.70;11.60;;;2.20;84.40;;;;;;10483511;28;20263;-78
2022/03/01 05:53:25;;;;;;;15.47;11.53;;;2.10;82.70;;;;;;10475135;28;20341;-77
2022/03/01 05:58:27;;;;;;;14.60;11.63;;;2.10;82.30;;;;;;10469719;28;20185;-77
2022/03/01 06:03:29;;;;;;;16.07;11.63;;;2.00;83.70;;;;;;10487880;28;20247;-81
2022/03/01 06:08:32;;;;;;;14.93;12.13;;;2.00;83.10;;;;;;10458547;28;20299;-81
2022/03/01 06:13:37;;;;;;;15.53;12.47;;;1.90;83.70;;;;;;10429695;28;20701;-80
2022/03/01 06:18:39;;;;;;;15.80;13.07;;;1.90;85.60;;;;;;10469575;28;20307;-80
2022/03/01 06:23:43;;;;;;;16.30;13.60;;;1.90;85.10;;;;;;10478393;28;20226;-79
2022/03/01 06:28:45;;;;;;;19.10;14.67;;;2.00;85.50;;;;;;10482209;28;20213;-80
2022/03/01 06:33:47;;;;;;;18.37;14.70;;;2.10;85.20;;;;;;10470919;28;20224;-80
2022/03/01 06:38:51;;;;;;;18.17;14.70;;;2.20;84.90;;;;;;10483810;28;20196;-81
2022/03/01 06:43:53;;;;;;;18.13;13.20;;;2.20;84.10;;;;;;10479796;28;20284;-79
2022/03/01 06:48:55;;;;;;;16.60;12.63;;;2.30;84.10;;;;;;10473610;28;20204;-79
2022/03/01 06:53:58;;;;;;;22.37;15.87;;;2.30;84.70;;;;;;10476742;28;20312;-80
2022/03/01 06:59:00;;;;;;;17.30;13.40;;;2.40;84.80;;;;;;10495987;28;20193;-79
2022/03/01 07:04:02;;;;;;;17.57;13.70;;;2.40;83.20;;;;;;10479897;28;20227;-79
2022/03/01 07:09:06;;;;;;;17.00;13.50;;;2.50;81.00;;;;;;10494746;28;20618;-79
2022/03/01 07:14:08;;;;;;;16.37;13.20;;;2.50;81.20;;;;;;10473504;28;20216;-81
2022/03/01 07:19:10;;;;;;;15.10;12.73;;;2.50;83.20;;;;;;10453931;28;20204;-79
2022/03/01 07:24:13;;;;;;;19.70;13.53;;;2.50;84.50;;;;;;10477001;28;20223;-79
2022/03/01 07:29:16;;;;;;;22.50;13.13;;;2.50;83.30;;;;;;10484710;28;20419;-79
2022/03/01 07:34:18;;;;;;;14.53;12.00;;;2.60;83.60;;;;;;10462854;28;20221;-79
2022/03/01 07:39:21;;;;;;;14.33;12.30;;;2.70;81.20;;;;;;10464571;28;20208;-80
2022/03/01 07:44:23;;;;;;;14.30;11.37;;;2.80;80.90;;;;;;10464836;28;20213;-81
2022/03/01 07:49:26;;;;;;;14.30;12.13;;;2.90;75.20;;;;;;10492666;28;20706;-81
2022/03/01 07:54:29;;;;;;;12.70;11.30;;;3.00;77.70;;;;;;10464095;28;20249;-81
2022/03/01 07:59:31;;;;;;;14.53;12.30;;;3.10;72.70;;;;;;10473421;28;20206;-80
2022/03/01 08:04:33;;;;;;;14.70;10.70;;;3.10;74.90;;;;;;10480345;28;20311;-81
2022/03/01 08:09:37;;;;;;;19.10;12.73;;;3.10;72.10;;;;;;10462026;28;20303;-80
2022/03/01 08:14:39;;;;;;;13.90;12.13;;;3.20;73.20;;;;;;10470635;28;20719;-80
2022/03/01 08:19:41;;;;;;;17.00;11.73;;;3.20;70.60;;;;;;10496599;28;20200;-81
2022/03/01 08:24:45;;;;;;;14.00;10.70;;;3.30;70.30;;;;;;10470134;28;20378;-80
2022/03/01 08:29:47;;;;;;;13.83;12.33;;;3.30;71.30;;;;;;10490084;28;20639;-79
2022/03/01 08:34:49;;;;;;;13.20;11.63;;;3.40;69.80;;;;;;10496518;28;20197;-80
2022/03/01 08:39:52;;;;;;;13.30;11.90;;;3.40;73.40;;;;;;10490548;28;20193;-81
2022/03/01 08:44:54;;;;;;;13.30;11.90;;;3.70;73.00;;;;;;10496283;28;20201;-81
2022/03/01 08:49:56;;;;;;;15.17;12.57;;;3.80;76.40;;;;;;10489945;28;20220;-80
2022/03/01 08:55:00;;;;;;;12.80;10.60;;;4.10;71.40;;;;;;10470558;28;20567;-80
2022/03/01 09:00:03;;;;;;;11.80;10.70;;;4.30;67.70;;;;;;10475176;28;20265;-80
2022/03/01 09:05:06;;;;;;;13.97;11.33;;;4.40;66.60;;;;;;10487261;28;20224;-81
2022/03/01 09:10:10;;;;;;;15.20;11.63;;;4.40;70.60;;;;;;10477401;28;20259;-81
2022/03/01 09:15:12;;;;;;;14.00;10.13;;;4.60;67.10;;;;;;10483242;28;20580;-80
2022/03/01 09:20:15;;;;;;;16.13;11.60;;;4.80;68.00;;;;;;10470594;28;20299;-81
2022/03/01 09:25:18;;;;;;;11.90;10.57;;;5.00;65.40;;;;;;10460917;28;20327;-81
2022/03/01 09:30:21;;;;;;;13.73;11.37;;;5.10;63.80;;;;;;10488398;28;20290;-81
2022/03/01 09:35:23;;;;;;;13.73;11.23;;;5.20;67.00;;;;;;10490451;28;20208;-83
2022/03/01 09:40:27;;;;;;;13.67;11.50;;;5.30;62.00;;;;;;10459110;28;20567;-81
2022/03/01 09:45:31;;;;;;;12.20;9.70;;;5.40;64.80;;;;;;10492834;28;20215;-81
2022/03/01 09:50:33;;;;;;;12.67;10.67;;;5.60;63.20;;;;;;10494915;28;20263;-81
2022/03/01 09:55:36;;;;;;;11.33;10.23;;;5.80;67.70;;;;;;10480944;28;20735;-82
2022/03/01 10:00:39;;;;;;;13.53;11.80;;;6.00;64.90;;;;;;10494000;28;20704;-81
2022/03/01 10:05:42;;;;;;;15.67;12.00;;;6.20;68.90;;;;;;10495581;28;20204;-81
2022/03/01 10:10:48;;;;;;;12.37;10.33;;;6.40;64.10;;;;;;10484331;28;20224;-81
2022/03/01 10:15:52;;;;;;;11.23;9.50;;;6.50;68.00;;;;;;10468533;28;20622;-81
2022/03/01 10:21:02;;;;;;;11.30;9.47;;;6.60;65.60;;;;;;10477991;28;20565;-81
2022/03/01 10:26:14;;;;;;;12.70;10.87;;;6.50;66.20;;;;;;10485403;28;20644;-82
2022/03/01 10:31:18;;;;;;;11.90;10.70;;;6.50;70.30;;;;;;10495408;28;20224;-81
2022/03/01 10:36:23;;;;;;;11.63;10.33;;;6.50;67.40;;;;;;10480514;28;20205;-81
2022/03/01 10:41:28;;;;;;;15.30;10.83;;;6.40;69.20;;;;;;10482094;28;20787;-81
2022/03/01 10:46:37;;;;;;;10.83;9.73;;;6.40;66.50;;;;;;10474331;28;20246;-81
2022/03/01 10:51:49;;;;;;;12.13;10.10;;;6.50;66.40;;;;;;10472685;28;20303;-80
2022/03/01 10:56:55;;;;;;;11.30;9.33;;;6.40;61.90;;;;;;10497657;28;20200;-81
2022/03/01 11:01:57;;;;;;;11.87;10.00;;;6.40;67.10;;;;;;10500504;28;20588;-81
2022/03/01 11:07:01;;;;;;;10.50;9.40;;;6.40;61.60;;;;;;10474361;28;20201;-81
2022/03/01 11:12:06;;;;;;;11.50;9.70;;;6.40;62.40;;;;;;10459279;28;20231;-82
2022/03/01 11:17:16;;;;;;;11.07;9.87;;;6.40;67.20;;;;;;10443090;28;20193;-81
2022/03/01 11:22:22;;;;;;;12.10;9.50;;;6.40;68.10;;;;;;10470115;28;20213;-81
2022/03/01 11:27:27;;;;;;;12.60;9.00;;;6.40;67.30;;;;;;10432520;28;20268;-81
2022/03/01 11:32:38;;;;;;;10.70;9.60;;;6.50;70.10;;;;;;10441680;28;20221;-83
2022/03/01 11:37:43;;;;;;;12.57;10.30;;;6.50;68.30;;;;;;10448770;28;20197;-82
2022/03/01 11:42:48;;;;;;;12.70;8.90;;;6.50;72.00;;;;;;10466192;28;20217;-83
2022/03/01 11:47:51;;;;;;;9.97;8.80;;;6.60;65.10;;;;;;10450332;28;20204;-83
2022/03/01 11:52:58;;;;;;;9.37;8.47;;;6.70;65.20;;;;;;10440538;28;20224;-83
2022/03/01 11:58:02;;;;;;;9.47;8.50;;;6.70;62.00;;;;;;10453591;28;20216;-82
2022/03/01 12:03:05;;;;;;;9.33;7.83;;;6.80;59.20;;;;;;10486544;28;20757;-81
2022/03/01 12:08:12;;;;;;;7.87;7.17;;;6.80;64.70;;;;;;10469315;28;20254;-83
2022/03/01 12:13:15;;;;;;;9.90;8.23;;;6.80;65.50;;;;;;10443223;28;20229;-82
2022/03/01 12:18:17;;;;;;;10.90;8.47;;;7.00;61.60;;;;;;10482033;28;20848;-83
2022/03/01 12:23:26;;;;;;;11.20;7.93;;;7.10;59.60;;;;;;10454884;28;20303;-82
2022/03/01 12:28:35;;;;;;;13.40;8.70;;;7.20;65.80;;;;;;10481907;28;20311;-84
2022/03/01 12:33:37;;;;;;;9.23;8.40;;;7.40;66.00;;;;;;10482497;28;20224;-83
2022/03/01 12:38:40;;;;;;;11.20;8.10;;;7.50;61.10;;;;;;10470137;28;20197;-82
2022/03/01 12:43:43;;;;;;;10.37;9.07;;;7.60;64.80;;;;;;10472355;28;20217;-81
2022/03/01 12:48:47;;;;;;;10.40;8.50;;;7.60;63.60;;;;;;10452321;28;20751;-83
2022/03/01 12:53:55;;;;;;;9.60;8.60;;;7.60;66.60;;;;;;10439613;28;20228;-81
2022/03/01 12:59:04;;;;;;;10.27;8.80;;;7.60;67.50;;;;;;10432222;28;20283;-82
2022/03/01 13:04:06;;;;;;;9.50;8.50;;;7.60;64.30;;;;;;10447049;28;20265;-81
2022/03/01 13:09:09;;;;;;;8.93;7.63;;;7.70;59.30;;;;;;10457069;28;20200;-83
2022/03/01 13:14:15;;;;;;;9.90;9.00;;;7.70;59.20;;;;;;10458645;28;20810;-83
2022/03/01 13:19:19;;;;;;;10.13;8.83;;;7.80;59.60;;;;;;10430734;28;20260;-80
2022/03/01 13:24:23;;;;;;;9.60;8.70;;;7.80;58.70;;;;;;10411918;28;20313;-81
2022/03/01 13:29:29;;;;;;;9.10;7.63;;;8.00;55.50;;;;;;10461184;28;20201;-82
2022/03/01 13:34:31;;;;;;;8.40;7.60;;;8.00;58.30;;;;;;10453429;28;20619;-83
2022/03/01 13:39:36;;;;;;;9.83;7.80;;;8.10;59.20;;;;;;10467715;28;20227;-81
2022/03/01 13:44:42;;;;;;;9.50;8.20;;;8.20;60.40;;;;;;10465599;28;20247;-83
2022/03/01 13:49:52;;;;;;;11.00;8.93;;;8.40;58.50;;;;;;10493218;28;20208;-83
2022/03/01 13:55:01;;;;;;;7.87;7.17;;;8.50;61.60;;;;;;10491412;28;20210;-83
2022/03/01 14:00:07;;;;;;;8.93;8.03;;;8.70;60.70;;;;;;10464333;28;20212;-82
2022/03/01 14:05:20;;;;;;;9.43;7.30;;;8.70;63.00;;;;;;10477715;28;20738;-82
2022/03/01 14:10:23;;;;;;;8.70;7.90;;;8.70;59.90;;;;;;10454153;28;20255;-82
2022/03/01 14:15:33;;;;;;;7.63;6.93;;;8.60;58.50;;;;;;10465720;28;20212;-83
2022/03/01 14:20:36;;;;;;;10.53;8.23;;;8.60;61.00;;;;;;10464071;28;20217;-82
2022/03/01 14:25:38;;;;;;;8.67;7.43;;;8.70;57.60;;;;;;10486291;28;20686;-80
2022/03/01 14:30:42;;;;;;;8.83;7.90;;;8.70;58.20;;;;;;10485489;28;20723;-81
2022/03/01 14:35:44;;;;;;;9.33;7.97;;;8.60;58.10;;;;;;10474491;28;20223;-81
2022/03/01 14:40:46;;;;;;;12.30;8.60;;;8.50;58.50;;;;;;10474980;28;20224;-81
2022/03/01 14:45:50;;;;;;;9.50;8.57;;;8.50;55.70;;;;;;10497324;28;20197;-81
2022/03/01 14:50:52;;;;;;;9.97;8.97;;;8.50;55.00;;;;;;10509219;28;20263;-81
2022/03/01 14:55:54;;;;;;;9.60;8.60;;;8.60;54.40;;;;;;10446905;28;20198;-81
2022/03/01 15:00:57;;;;;;;9.40;8.43;;;8.60;59.00;;;;;;10457764;28;20288;-82
2022/03/01 15:05:59;;;;;;;10.07;9.03;;;8.60;62.40;;;;;;10447735;28;20201;-81
2022/03/01 15:11:02;;;;;;;9.87;8.90;;;8.60;58.70;;;;;;10443353;28;20249;-81
2022/03/01 15:16:05;;;;;;;9.30;8.40;;;8.60;63.60;;;;;;10462038;28;20197;-81
2022/03/01 15:21:10;;;;;;;9.30;8.30;;;8.70;58.60;;;;;;10466172;28;20209;-81
2022/03/01 15:26:13;;;;;;;9.77;8.00;;;8.70;59.30;;;;;;10460294;28;20205;-81
2022/03/01 15:31:16;;;;;;;11.97;9.00;;;8.70;63.20;;;;;;10454949;28;20304;-81
2022/03/01 15:36:18;;;;;;;12.23;9.20;;;8.60;67.00;;;;;;10462022;28;20201;-81
2022/03/01 15:41:20;;;;;;;8.53;7.70;;;8.60;55.30;;;;;;10463514;28;20205;-81
2022/03/01 15:46:24;;;;;;;8.90;7.97;;;8.60;60.60;;;;;;10438293;28;20624;-81
2022/03/01 15:51:26;;;;;;;9.13;8.33;;;8.50;58.90;;;;;;10438865;28;20232;-81
2022/03/01 15:56:29;;;;;;;10.37;9.37;;;8.50;64.00;;;;;;10440113;28;20201;-81
2022/03/01 16:01:32;;;;;;;12.20;9.00;;;8.50;67.60;;;;;;10466396;28;20818;-81
2022/03/01 16:06:35;;;;;;;10.50;8.93;;;8.40;70.50;;;;;;10446331;28;20210;-81
2022/03/01 16:11:37;;;;;;;9.50;8.60;;;8.40;68.50;;;;;;10462711;28;20277;-81
2022/03/01 16:16:41;;;;;;;8.47;7.57;;;8.30;65.50;;;;;;10462761;28;20206;-80
2022/03/01 16:21:43;;;;;;;9.73;8.13;;;8.30;65.70;;;;;;10467349;28;20296;-81
2022/03/01 16:26:45;;;;;;;9.50;8.47;;;8.20;68.90;;;;;;10501157;28;20637;-81
2022/03/01 16:31:49;;;;;;;10.83;9.37;;;8.10;66.10;;;;;;10503069;28;20224;-81
2022/03/01 16:36:51;;;;;;;10.70;8.30;;;8.10;70.40;;;;;;10480060;28;20196;-81
2022/03/01 16:41:53;;;;;;;12.93;8.33;;;8.00;68.80;;;;;;10474154;28;20219;-81
2022/03/01 16:46:57;;;;;;;12.43;9.90;;;8.00;64.70;;;;;;10477970;28;20235;-82
2022/03/01 16:52:00;;;;;;;11.20;9.70;;;7.90;65.60;;;;;;10495137;28;20262;-82
2022/03/01 16:57:02;;;;;;;10.73;9.00;;;7.80;65.60;;;;;;10495993;28;20200;-82
2022/03/01 17:02:06;;;;;;;9.97;8.87;;;7.70;63.30;;;;;;10477851;28;20333;-82
2022/03/01 17:07:09;;;;;;;13.97;11.73;;;7.50;64.30;;;;;;10495580;28;20221;-81
2022/03/01 17:12:11;;;;;;;12.03;10.43;;;7.40;64.80;;;;;;10471563;28;20344;-83
2022/03/01 17:17:15;;;;;;;12.23;10.83;;;7.30;66.90;;;;;;10439317;28;20205;-83
2022/03/01 17:22:17;;;;;;;10.77;9.67;;;7.20;64.60;;;;;;10449810;28;20209;-82
2022/03/01 17:27:19;;;;;;;11.20;10.10;;;7.00;63.40;;;;;;10460987;28;20545;-83
2022/03/01 17:32:23;;;;;;;10.67;9.57;;;6.90;65.40;;;;;;10454502;28;20216;-81
2022/03/01 17:37:25;;;;;;;11.53;9.80;;;6.70;66.70;;;;;;10464224;28;20197;-80
2022/03/01 17:42:27;;;;;;;18.70;15.43;;;6.60;65.60;;;;;;10464637;28;20354;-80
2022/03/01 17:47:31;;;;;;;17.87;15.13;;;6.50;66.60;;;;;;10440023;28;20201;-81
2022/03/01 17:52:33;;;;;;;27.10;20.40;;;6.40;66.00;;;;;;10451976;28;20293;-81
2022/03/01 17:57:35;;;;;;;19.97;15.13;;;6.30;65.50;;;;;;10454083;28;20555;-81
2022/03/01 18:02:40;;;;;;;21.70;15.80;;;6.20;66.10;;;;;;10456522;28;20243;-81
2022/03/01 18:07:42;;;;;;;16.47;13.40;;;6.00;68.50;;;;;;10478364;28;20237;-81
2022/03/01 18:12:44;;;;;;;15.30;10.87;;;6.00;68.60;;;;;;10443704;28;20224;-81
2022/03/01 18:17:48;;;;;;;12.30;10.60;;;5.90;66.70;;;;;;10454412;28;20220;-82
2022/03/01 18:22:50;;;;;;;11.57;10.17;;;5.80;68.50;;;;;;10476883;28;20242;-81
2022/03/01 18:27:54;;;;;;;11.57;10.20;;;5.80;69.20;;;;;;10471182;28;20292;-82
2022/03/01 18:32:58;;;;;;;13.30;11.10;;;5.80;68.70;;;;;;10468470;28;20247;-83
2022/03/01 18:38:00;;;;;;;12.23;11.00;;;5.80;67.20;;;;;;10464010;28;20264;-81
2022/03/01 18:43:02;;;;;;;12.73;11.43;;;5.70;66.40;;;;;;10467855;28;20221;-81
2022/03/01 18:48:09;;;;;;;12.77;9.80;;;5.70;68.30;;;;;;10429518;28;20239;-81
2022/03/01 18:53:13;;;;;;;12.57;11.27;;;5.60;66.10;;;;;;10488077;28;20224;-81
2022/03/01 18:58:15;;;;;;;11.10;9.87;;;5.60;67.10;;;;;;10474461;28;20201;-81
2022/03/01 19:03:20;;;;;;;13.83;10.33;;;5.50;69.30;;;;;;10458387;28;20634;-81
2022/03/01 19:08:22;;;;;;;14.60;12.27;;;5.50;70.10;;;;;;10469606;28;20208;-81
2022/03/01 19:13:25;;;;;;;13.23;11.23;;;5.50;69.60;;;;;;10426683;28;20229;-81
2022/03/01 19:18:28;;;;;;;12.10;10.37;;;5.40;72.70;;;;;;10443261;28;20232;-81
2022/03/01 19:23:30;;;;;;;16.60;14.87;;;5.40;69.00;;;;;;10462972;28;20554;-83
2022/03/01 19:28:33;;;;;;;14.30;12.80;;;5.40;69.10;;;;;;10452506;28;20660;-82
2022/03/01 19:33:36;;;;;;;14.43;12.63;;;5.30;69.60;;;;;;10470405;28;20562;-83
2022/03/01 19:38:39;;;;;;;13.93;12.53;;;5.20;70.60;;;;;;10476438;28;20574;-81
2022/03/01 19:43:41;;;;;;;15.03;12.70;;;5.20;71.90;;;;;;10465806;28;20224;-83
2022/03/01 19:48:45;;;;;;;13.10;11.40;;;5.10;74.20;;;;;;10461331;28;20736;-83
2022/03/01 19:53:47;;;;;;;15.17;10.97;;;5.10;73.60;;;;;;10482413;28;20311;-83
2022/03/01 19:58:49;;;;;;;14.10;11.80;;;5.10;74.20;;;;;;10447047;28;20212;-82
2022/03/01 20:03:55;;;;;;;13.77;12.37;;;5.00;75.50;;;;;;10461798;28;20221;-82
2022/03/01 20:08:58;;;;;;;14.63;12.50;;;5.00;75.50;;;;;;10462728;28;20201;-80
2022/03/01 20:14:00;;;;;;;14.37;10.87;;;5.00;74.40;;;;;;10457721;28;20558;-80
2022/03/01 20:19:04;;;;;;;15.03;12.20;;;4.90;74.50;;;;;;10454857;28;20291;-81
2022/03/01 20:24:07;;;;;;;14.00;11.50;;;4.80;73.10;;;;;;10435309;28;20220;-81
2022/03/01 20:29:09;;;;;;;12.57;11.37;;;4.70;73.90;;;;;;10443218;28;20200;-81
2022/03/01 20:34:12;;;;;;;13.50;12.10;;;4.60;74.90;;;;;;10510558;22;20571;-80
2022/03/01 20:39:14;;;;;;;13.20;11.80;;;4.50;74.50;;;;;;10462276;28;20281;-79
2022/03/01 20:44:17;;;;;;;13.00;11.30;;;4.40;76.40;;;;;;10460700;28;20216;-80
2022/03/01 20:49:20;;;;;;;13.23;11.83;;;4.40;76.00;;;;;;10456365;28;20209;-80
2022/03/01 20:54:23;;;;;;;13.60;12.30;;;4.40;75.70;;;;;;10483537;28;20250;-80
2022/03/01 20:59:26;;;;;;;17.43;13.33;;;4.40;77.20;;;;;;10487082;28;20196;-80
2022/03/01 21:04:29;;;;;;;18.50;14.93;;;4.30;75.80;;;;;;10487224;28;20721;-80
2022/03/01 21:09:31;;;;;;;18.53;15.07;;;4.20;76.20;;;;;;10489674;28;20675;-80
2022/03/01 21:14:33;;;;;;;15.10;13.30;;;4.20;76.40;;;;;;10474949;28;20236;-80
2022/03/01 21:19:37;;;;;;;19.00;15.83;;;4.20;76.00;;;;;;10454872;28;20209;-80
2022/03/01 21:24:39;;;;;;;14.33;12.80;;;4.10;75.60;;;;;;10478477;28;20242;-79
2022/03/01 21:29:42;;;;;;;18.57;14.00;;;4.00;76.30;;;;;;10434286;28;20257;-80
2022/03/01 21:34:45;;;;;;;13.80;12.40;;;3.80;75.10;;;;;;10460666;28;20232;-79
2022/03/01 21:39:48;;;;;;;14.80;13.07;;;3.80;76.30;;;;;;10450437;28;20252;-79
2022/03/01 21:44:51;;;;;;;15.03;12.63;;;3.70;78.20;;;;;;10480283;28;20213;-80
2022/03/01 21:49:55;;;;;;;22.07;12.93;;;3.70;76.90;;;;;;10459874;28;20205;-80
2022/03/01 21:54:57;;;;;;;14.87;13.37;;;3.60;76.50;;;;;;10464208;28;20623;-80
2022/03/01 21:59:59;;;;;;;14.50;12.97;;;3.60;77.30;;;;;;10460973;28;20345;-80
2022/03/01 22:05:04;;;;;;;15.30;13.10;;;3.50;78.30;;;;;;10466084;28;20231;-80
2022/03/01 22:10:08;;;;;;;13.43;12.03;;;3.50;78.40;;;;;;10481330;28;20205;-80
2022/03/01 22:15:12;;;;;;;15.10;12.87;;;3.50;78.50;;;;;;10445870;28;20209;-80
2022/03/01 22:20:16;;;;;;;17.00;15.30;;;3.50;78.20;;;;;;10483524;28;20200;-80
2022/03/01 22:25:18;;;;;;;14.17;12.67;;;3.50;79.60;;;;;;10494966;28;20199;-80
2022/03/01 22:30:21;;;;;;;14.47;12.50;;;3.50;79.10;;;;;;10461045;28;20208;-79
2022/03/01 22:35:24;;;;;;;14.93;13.33;;;3.50;78.70;;;;;;10463997;28;20232;-80
2022/03/01 22:40:27;;;;;;;14.93;13.30;;;3.50;77.70;;;;;;10463840;28;20764;-79
2022/03/01 22:45:29;;;;;;;15.23;12.40;;;3.50;79.30;;;;;;10467004;28;20197;-79
2022/03/01 22:50:35;;;;;;;14.57;12.67;;;3.50;79.50;;;;;;10485236;28;20314;-80
2022/03/01 22:55:39;;;;;;;14.43;12.93;;;3.50;79.80;;;;;;10444638;28;20213;-80
2022/03/01 23:01:20;;;;;;;18.67;13.93;;;3.40;77.40;;;;;;10426354;28;20243;-80
2022/03/01 23:06:24;;;;;;;13.63;12.27;;;3.50;80.00;;;;;;10455102;28;20738;-81
2022/03/01 23:11:27;;;;;;;15.17;12.67;;;3.50;80.40;;;;;;10436853;28;20221;-79
2022/03/01 23:16:29;;;;;;;12.40;11.20;;;3.50;77.70;;;;;;10469805;28;20224;-80
2022/03/01 23:21:35;;;;;;;13.20;11.80;;;3.40;78.50;;;;;;10447997;28;20259;-81
2022/03/01 23:26:37;;;;;;;15.37;12.60;;;3.30;78.50;;;;;;10451281;28;20212;-80
2022/03/01 23:31:39;;;;;;;15.00;11.70;;;3.30;79.60;;;;;;10472966;28;20294;-80
2022/03/01 23:36:43;;;;;;;14.53;13.13;;;3.20;79.00;;;;;;10461660;28;20235;-80
2022/03/01 23:41:45;;;;;;;15.70;13.30;;;3.30;79.70;;;;;;10471776;28;20734;-80
2022/03/01 23:46:47;;;;;;;14.10;12.70;;;3.30;81.00;;;;;;10453643;28;20208;-80
2022/03/01 23:51:51;;;;;;;15.13;12.50;;;3.20;79.90;;;;;;10462383;28;20220;-80
2022/03/01 23:56:55;;;;;;;13.63;12.10;;;3.20;80.70;;;;;;10457882;28;20250;-79
